Time;durP1;ratioP1;P1;durP2;ratioP2;P2;SDS_P1;SDS_P2;PMS_P1;PMS_P2;Temp;Humidity;BMP_temperature;BMP_pressure;BME280_temperature;BME280_humidity;BME280_pressure;Samples;Min_cycle;Max_cycle;Signal;HPM_P1;HPM_P2
2023/05/30 00:01:23;;;;;;;175.70;84.90;;;;;;;14.50;67.10;99391.80;105686;1258;61247;-69
2023/05/30 00:03:50;;;;;;;158.30;77.00;;;;;;;14.47;66.54;99389.02;105684;1259;74903;-69
2023/05/30 00:06:18;;;;;;;180.40;87.30;;;;;;;14.51;66.56;99383.17;105718;1254;68718;-70
2023/05/30 00:08:44;;;;;;;172.10;86.80;;;;;;;14.44;66.87;99382.58;105621;1259;73084;-68
2023/05/30 00:11:14;;;;;;;148.90;76.00;;;;;;;14.32;67.46;99382.78;105645;1259;61667;-73
2023/05/30 00:13:44;;;;;;;159.00;79.40;;;;;;;14.35;67.33;99382.15;105638;1254;62252;-71
2023/05/30 00:16:12;;;;;;;121.80;64.00;;;;;;;14.42;67.19;99379.41;105671;1259;74588;-67
2023/05/30 00:18:39;;;;;;;114.20;61.10;;;;;;;14.37;67.45;99379.88;105673;1254;68615;-69
2023/05/30 00:21:07;;;;;;;111.50;58.40;;;;;;;14.24;68.08;99373.83;105635;1257;72966;-70
2023/05/30 00:23:35;;;;;;;117.30;65.90;;;;;;;14.24;68.44;99374.80;105692;1253;61723;-69
2023/05/30 00:26:03;;;;;;;127.60;65.60;;;;;;;14.20;69.87;99376.25;105644;1254;61248;-68
2023/05/30 00:28:30;;;;;;;135.50;72.30;;;;;;;14.16;70.64;99377.08;105520;1262;74421;-67
2023/05/30 00:30:57;;;;;;;154.10;73.50;;;;;;;14.16;70.37;99379.23;105711;1254;69172;-68
2023/05/30 00:33:25;;;;;;;133.50;71.90;;;;;;;14.09;70.88;99380.52;105704;1254;73136;-69
2023/05/30 00:35:52;;;;;;;123.20;71.00;;;;;;;14.05;70.99;99379.85;105659;1254;61921;-74
2023/05/30 00:38:20;;;;;;;137.50;71.50;;;;;;;14.05;71.88;99378.08;105633;1258;61328;-69
2023/05/30 00:40:47;;;;;;;143.50;76.60;;;;;;;13.97;73.07;99374.88;105790;1259;75122;-68
2023/05/30 00:43:15;;;;;;;125.30;67.60;;;;;;;14.08;72.38;99373.04;105538;1259;68593;-68
2023/05/30 00:45:42;;;;;;;121.00;60.00;;;;;;;14.14;71.43;99376.60;105612;1253;73034;-66
2023/05/30 00:48:10;;;;;;;166.50;79.10;;;;;;;14.03;71.47;99379.65;105680;1259;61863;-68
2023/05/30 00:50:37;;;;;;;57.50;30.10;;;;;;;14.05;71.37;99376.29;105364;1260;61545;-67
2023/05/30 00:53:05;;;;;;;62.80;27.10;;;;;;;14.18;70.14;99378.89;105659;1260;75109;-69
2023/05/30 00:55:32;;;;;;;84.30;44.30;;;;;;;14.15;70.08;99379.73;105664;1254;69166;-66
2023/05/30 00:57:59;;;;;;;52.10;30.00;;;;;;;14.16;69.65;99377.95;105628;1254;72603;-69
2023/05/30 01:00:26;;;;;;;30.00;13.90;;;;;;;14.11;69.83;99375.38;105638;1259;61665;-67
2023/05/30 01:02:59;;;;;;;30.00;16.80;;;;;;;14.15;69.54;99373.30;105724;1259;61333;-67
2023/05/30 01:05:29;;;;;;;18.80;11.50;;;;;;;14.14;69.46;99370.93;105656;1259;74583;-69
2023/05/30 01:07:56;;;;;;;12.80;8.70;;;;;;;14.17;70.01;99369.63;105672;1258;69144;-67
2023/05/30 01:10:23;;;;;;;22.30;12.30;;;;;;;14.22;69.85;99367.96;105532;1260;73249;-68
2023/05/30 01:13:10;;;;;;;28.10;17.00;;;;;;;14.27;69.24;99374.71;105658;1254;61876;-67
2023/05/30 01:16:01;;;;;;;13.90;9.60;;;;;;;14.09;70.22;99368.26;105614;1254;61339;-68
2023/05/30 01:18:34;;;;;;;17.90;9.30;;;;;;;13.96;71.64;99368.91;105657;1257;74300;-68
2023/05/30 01:21:10;;;;;;;16.50;8.60;;;;;;;14.12;71.47;99368.73;105612;1255;68646;-67
2023/05/30 01:24:15;;;;;;;53.90;27.50;;;;;;;14.11;71.28;99373.60;105673;1259;72606;-68
2023/05/30 01:27:01;;;;;;;22.70;13.00;;;;;;;14.05;70.81;99375.10;105692;1255;61948;-67
2023/05/30 01:29:28;;;;;;;32.70;19.70;;;;;;;14.05;70.79;99372.73;105702;1254;61285;-66
2023/05/30 01:31:55;;;;;;;29.30;18.30;;;;;;;14.13;70.38;99378.94;105650;1263;74914;-67
2023/05/30 01:34:23;;;;;;;31.30;18.60;;;;;;;14.05;70.88;99373.54;105568;1261;69265;-70
2023/05/30 01:36:51;;;;;;;38.00;19.70;;;;;;;14.05;70.81;99376.39;105604;1257;73129;-66
2023/05/30 01:39:18;;;;;;;31.50;18.90;;;;;;;14.06;71.16;99376.98;105698;1254;61960;-68
2023/05/30 01:41:48;;;;;;;27.30;16.10;;;;;;;14.03;71.52;99378.47;105664;1254;62125;-66
2023/05/30 01:44:22;;;;;;;23.20;16.70;;;;;;;14.04;71.33;99378.58;105613;1262;74545;-67
2023/05/30 01:47:15;;;;;;;20.30;13.60;;;;;;;14.01;71.50;99376.04;105675;1259;68530;-67
2023/05/30 01:50:05;;;;;;;19.00;13.30;;;;;;;13.89;71.90;99370.14;105627;1257;73123;-67
2023/05/30 01:52:33;;;;;;;31.30;16.30;;;;;;;13.88;71.85;99372.67;105700;1259;61829;-67
2023/05/30 01:55:03;;;;;;;19.00;13.80;;;;;;;13.94;71.85;99373.71;105609;1260;61193;-68
2023/05/30 01:57:30;;;;;;;20.20;13.80;;;;;;;13.94;71.85;99373.14;105636;1260;74545;-66
2023/05/30 01:59:58;;;;;;;17.10;11.30;;;;;;;13.97;72.03;99372.57;105647;1255;69010;-68
2023/05/30 02:02:25;;;;;;;13.30;8.50;;;;;;;13.97;71.94;99376.39;105726;1257;72563;-67
2023/05/30 02:04:54;;;;;;;11.70;7.70;;;;;;;14.00;71.44;99379.19;105623;1260;61591;-68
2023/05/30 02:07:22;;;;;;;12.10;7.40;;;;;;;13.90;71.85;99378.55;105653;1259;61206;-68
2023/05/30 02:09:49;;;;;;;8.50;7.40;;;;;;;13.86;72.38;99379.02;105678;1259;75126;-67
2023/05/30 02:12:16;;;;;;;14.80;8.60;;;;;;;13.96;71.72;99381.04;105655;1260;68728;-70
2023/05/30 02:14:43;;;;;;;20.50;8.70;;;;;;;14.13;70.50;99382.42;105338;1264;72978;-72
2023/05/30 02:17:10;;;;;;;9.70;7.70;;;;;;;14.16;69.80;99382.37;105608;1260;61799;-68
2023/05/30 02:19:37;;;;;;;19.10;10.30;;;;;;;14.05;70.20;99382.02;105636;1260;61251;-68
2023/05/30 02:22:06;;;;;;;20.40;10.30;;;;;;;13.98;70.89;99382.98;105639;1259;75276;-67
2023/05/30 02:24:34;;;;;;;18.00;8.10;;;;;;;13.97;71.16;99383.25;105676;1261;68459;-68
2023/05/30 02:27:01;;;;;;;14.40;8.50;;;;;;;13.99;71.13;99384.52;105631;1254;73148;-67
2023/05/30 02:29:28;;;;;;;13.80;9.30;;;;;;;14.05;71.18;99383.36;105620;1258;61690;-67
2023/05/30 02:31:55;;;;;;;16.70;10.20;;;;;;;14.09;71.21;99383.23;105651;1267;62224;-68
2023/05/30 02:34:21;;;;;;;16.90;11.20;;;;;;;14.18;71.11;99382.67;105630;1260;74919;-69
2023/05/30 02:36:48;;;;;;;16.10;12.20;;;;;;;14.28;71.02;99387.08;105618;1260;69132;-67
2023/05/30 02:39:17;;;;;;;24.30;12.50;;;;;;;14.39;70.49;99381.80;105689;1259;72236;-67
2023/05/30 02:41:44;;;;;;;13.30;11.00;;;;;;;14.42;70.39;99382.05;105642;1257;61984;-68
2023/05/30 02:44:10;;;;;;;12.50;9.70;;;;;;;14.49;70.40;99382.14;105617;1260;61333;-66
2023/05/30 02:46:38;;;;;;;14.50;9.60;;;;;;;14.57;70.49;99382.48;105645;1258;74130;-67
2023/05/30 02:49:05;;;;;;;14.50;8.50;;;;;;;14.79;69.84;99384.71;105626;1258;68568;-67
2023/05/30 02:51:32;;;;;;;15.60;9.90;;;;;;;14.90;68.85;99386.16;105619;1257;72937;-67
2023/05/30 02:54:00;;;;;;;22.00;8.90;;;;;;;15.12;68.14;99385.98;105579;1260;61784;-68
2023/05/30 02:56:41;;;;;;;14.80;8.40;;;;;;;15.31;67.39;99383.33;105632;1260;61420;-68
2023/05/30 02:59:17;;;;;;;23.60;9.20;;;;;;;15.54;67.00;99382.92;105575;1260;75171;-67
2023/05/30 03:02:10;;;;;;;24.80;11.40;;;;;;;15.86;65.95;99379.55;105347;1260;69134;-69
2023/05/30 03:04:37;;;;;;;15.20;9.90;;;;;;;15.95;65.23;99381.85;105677;1259;72547;-68
2023/05/30 03:07:08;;;;;;;18.60;9.70;;;;;;;16.13;64.47;99382.34;105681;1254;61880;-67
2023/05/30 03:09:39;;;;;;;9.80;7.80;;;;;;;16.39;63.21;99388.32;105652;1258;62007;-68
2023/05/30 03:12:06;;;;;;;9.60;8.60;;;;;;;16.62;62.78;99388.70;105661;1261;74522;-70
2023/05/30 03:14:33;;;;;;;19.40;9.80;;;;;;;16.83;61.76;99387.86;105682;1261;68889;-68
2023/05/30 03:17:00;;;;;;;21.80;11.00;;;;;;;17.08;60.93;99388.59;105586;1260;72990;-68
2023/05/30 03:19:27;;;;;;;11.60;8.30;;;;;;;17.32;59.51;99391.33;105655;1259;61873;-69
2023/05/30 03:21:58;;;;;;;10.90;7.80;;;;;;;17.47;58.74;99394.16;105644;1254;62252;-69
2023/05/30 03:24:26;;;;;;;9.00;7.60;;;;;;;17.67;57.82;99395.48;105637;1257;75535;-68
2023/05/30 03:26:53;;;;;;;11.10;7.90;;;;;;;17.88;56.80;99399.12;105672;1255;67608;-68
2023/05/30 03:29:21;;;;;;;14.80;9.10;;;;;;;18.15;55.82;99403.25;105395;1260;73405;-70
2023/05/30 03:31:47;;;;;;;21.50;9.10;;;;;;;18.36;54.55;99404.79;105730;1259;61314;-68
2023/05/30 03:34:14;;;;;;;10.50;7.80;;;;;;;18.53;54.27;99401.77;105645;1260;61898;-77
2023/05/30 03:36:42;;;;;;;13.30;8.50;;;;;;;18.77;53.99;99405.45;105624;1263;75070;-70
2023/05/30 03:39:09;;;;;;;11.20;6.80;;;;;;;19.04;52.26;99407.50;105700;1255;68448;-70
2023/05/30 03:41:36;;;;;;;13.00;7.50;;;;;;;19.36;50.89;99407.09;105695;1267;73077;-70
2023/05/30 03:44:04;;;;;;;9.00;6.40;;;;;;;19.71;49.50;99409.10;105679;1254;62203;-76
2023/05/30 03:46:32;;;;;;;14.00;7.50;;;;;;;19.83;48.80;99409.96;105719;1258;61157;-71
2023/05/30 03:49:01;;;;;;;15.20;6.60;;;;;;;20.09;47.55;99409.85;105709;1258;75094;-70
2023/05/30 03:51:28;;;;;;;15.70;6.20;;;;;;;20.30;46.90;99409.67;105722;1254;68595;-69
2023/05/30 03:53:54;;;;;;;12.40;7.10;;;;;;;20.61;46.45;99407.77;105660;1260;72401;-70
2023/05/30 03:56:22;;;;;;;18.60;6.80;;;;;;;20.89;44.92;99407.63;105646;1254;61341;-76
2023/05/30 03:58:49;;;;;;;31.20;18.00;;;;;;;21.01;44.63;99403.77;105679;1257;61362;-69
2023/05/30 04:01:15;;;;;;;16.30;8.00;;;;;;;21.31;44.56;99407.09;105646;1257;74713;-70
2023/05/30 04:03:46;;;;;;;11.40;5.80;;;;;;;21.71;44.04;99413.73;105669;1254;69853;-70
2023/05/30 04:06:14;;;;;;;23.00;6.50;;;;;;;22.10;43.27;99413.67;105749;1258;72562;-71
2023/05/30 04:08:41;;;;;;;35.50;10.30;;;;;;;22.47;42.14;99423.54;105669;1260;61318;-69
2023/05/30 04:11:08;;;;;;;17.30;9.10;;;;;;;22.70;41.39;99423.72;105549;1254;149615;-69
2023/05/30 04:13:36;;;;;;;;;;;;;;;22.86;40.91;99424.88;105732;1257;74935;-70
2023/05/30 04:16:03;;;;;;;25.10;7.40;;;;;;;23.02;40.33;99429.02;105744;1254;68468;-70
2023/05/30 04:18:31;;;;;;;26.20;7.10;;;;;;;23.12;40.13;99429.83;105637;1260;73109;-75
2023/05/30 04:20:58;;;;;;;17.30;5.70;;;;;;;23.34;40.41;99429.23;105592;1254;61225;-71
2023/05/30 04:23:25;;;;;;;12.20;6.00;;;;;;;23.71;39.72;99431.80;105670;1253;61332;-71
2023/05/30 04:25:57;;;;;;;14.80;5.70;;;;;;;23.85;39.19;99432.95;105880;1255;73555;-70
2023/05/30 04:28:27;;;;;;;18.70;5.10;;;;;;;23.91;38.96;99433.08;105796;1258;68634;-72
2023/05/30 04:30:56;;;;;;;11.60;4.90;;;;;;;24.30;38.79;99437.58;105735;1257;72260;-73
2023/05/30 04:33:35;;;;;;;15.20;5.40;;;;;;;24.67;38.19;99437.20;105719;1260;61375;-72
2023/05/30 04:36:04;;;;;;;13.90;5.30;;;;;;;24.86;37.47;99435.73;105676;1254;61295;-72
2023/05/30 04:38:34;;;;;;;9.20;4.90;;;;;;;25.12;36.86;99436.02;105646;1255;74484;-72
2023/05/30 04:41:03;;;;;;;8.30;4.80;;;;;;;25.61;36.39;99436.58;105730;1254;68500;-72
2023/05/30 04:43:31;;;;;;;8.40;4.00;;;;;;;26.01;35.39;99443.16;105766;1260;72542;-73
2023/05/30 04:46:00;;;;;;;;;;;;;;;26.16;35.22;99443.54;105822;1254;62331;-71
2023/05/30 04:48:39;;;;;;;10.30;4.10;;;;;;;26.22;35.17;99448.08;105839;1259;61256;-72
2023/05/30 04:51:05;;;;;;;12.20;4.70;;;;;;;26.38;34.83;99450.36;105729;1254;73486;-71
2023/05/30 04:53:32;;;;;;;13.70;4.70;;;;;;;26.51;34.53;99449.44;105700;1254;68650;-68
2023/05/30 04:55:59;;;;;;;20.20;5.00;;;;;;;26.62;34.01;99448.73;105642;1258;73034;-71
2023/05/30 04:58:27;;;;;;;10.90;5.00;;;;;;;26.83;33.86;99448.73;105624;1257;61339;-69
2023/05/30 05:00:58;;;;;;;18.60;4.80;;;;;;;26.87;33.80;99447.63;105656;1254;61375;-71
2023/05/30 05:03:25;;;;;;;9.40;4.40;;;;;;;26.96;33.87;99446.77;105692;1260;74892;-69
2023/05/30 05:05:52;;;;;;;7.80;3.90;;;;;;;27.13;33.53;99455.41;105767;1258;68545;-69
2023/05/30 05:08:20;;;;;;;18.50;4.70;;;;;;;27.50;32.71;99456.83;105726;1254;71472;-69
2023/05/30 05:10:46;;;;;;;5.60;3.80;;;;;;;27.93;32.04;99460.55;105640;1254;61336;-70
2023/05/30 05:13:13;;;;;;;8.70;4.00;;;;;;;28.11;31.60;99463.70;105653;1254;61298;-73
2023/05/30 05:15:40;;;;;;;13.80;4.10;;;;;;;28.31;31.56;99464.20;105634;1254;75072;-74
2023/05/30 05:18:10;;;;;;;24.10;4.40;;;;;;;28.53;31.12;99466.39;105750;1254;68739;-72
2023/05/30 05:20:38;;;;;;;12.60;3.90;;;;;;;28.70;30.53;99471.69;105712;1255;72773;-71
2023/05/30 05:23:05;;;;;;;17.30;4.90;;;;;;;28.61;30.08;99470.73;105664;1255;61298;-70
2023/05/30 05:25:32;;;;;;;17.90;4.60;;;;;;;28.85;29.38;99473.91;105711;1254;61281;-69
2023/05/30 05:27:59;;;;;;;7.40;3.50;;;;;;;29.13;28.86;99472.57;105649;1258;74492;-70
2023/05/30 05:30:26;;;;;;;8.60;3.70;;;;;;;28.90;28.87;99475.70;105696;1258;68982;-71
2023/05/30 05:32:53;;;;;;;8.30;3.30;;;;;;;28.93;29.49;99477.93;105690;1260;73262;-70
2023/05/30 05:35:20;;;;;;;5.70;3.30;;;;;;;28.77;28.68;99474.70;105702;1254;61326;-70
2023/05/30 05:37:48;;;;;;;8.80;2.90;;;;;;;28.49;28.04;99477.38;105743;1254;62239;-69
2023/05/30 05:40:14;;;;;;;9.00;3.60;;;;;;;28.31;28.43;99476.11;105717;1258;74942;-68
2023/05/30 05:42:44;;;;;;;10.80;2.70;;;;;;;28.42;28.37;99476.01;105523;1255;69613;-69
2023/05/30 05:45:11;;;;;;;9.70;3.50;;;;;;;28.51;27.84;99484.19;105671;1257;72913;-70
2023/05/30 05:47:39;;;;;;;10.40;3.20;;;;;;;28.78;27.46;99484.58;105680;1254;61336;-70
2023/05/30 05:50:07;;;;;;;9.90;3.20;;;;;;;28.91;27.23;99482.09;105688;1254;61348;-68
2023/05/30 05:52:35;;;;;;;5.90;2.60;;;;;;;29.21;27.34;99481.70;105610;1260;74327;-69
2023/05/30 05:55:01;;;;;;;8.00;3.00;;;;;;;29.25;25.96;99486.95;105609;1254;69082;-68
2023/05/30 05:57:28;;;;;;;5.80;3.50;;;;;;;29.15;25.95;99488.83;105638;1257;73472;-71
2023/05/30 05:59:55;;;;;;;6.70;3.70;;;;;;;28.89;26.75;99489.34;105707;1254;62213;-69
2023/05/30 06:02:22;;;;;;;14.60;5.70;;;;;;;28.55;27.19;99488.84;105635;1258;61324;-70
2023/05/30 06:04:49;;;;;;;26.40;15.00;;;;;;;24.71;31.36;99472.70;105743;1260;75070;-68
2023/05/30 06:07:16;;;;;;;36.40;18.70;;;;;;;24.03;32.97;99464.52;105820;1254;69309;-69
2023/05/30 06:09:45;;;;;;;26.50;16.50;;;;;;;23.85;33.26;99471.56;105674;1257;72894;-69
2023/05/30 06:12:12;;;;;;;25.60;16.50;;;;;;;23.89;33.54;99469.58;105698;1254;61253;-70
2023/05/30 06:14:39;;;;;;;32.60;16.80;;;;;;;23.86;33.36;99464.61;105771;1257;62366;-68
2023/05/30 06:17:07;;;;;;;31.40;14.40;;;;;;;24.18;33.04;99465.41;105639;1254;74523;-69
2023/05/30 06:19:34;;;;;;;21.30;12.50;;;;;;;24.60;32.83;99466.55;105672;1254;68452;-73
2023/05/30 06:22:01;;;;;;;17.10;9.80;;;;;;;24.85;32.43;99466.52;105692;1257;73365;-70
2023/05/30 06:24:27;;;;;;;11.30;6.30;;;;;;;24.93;31.41;99467.92;105643;1254;62272;-69
2023/05/30 06:26:54;;;;;;;7.70;4.20;;;;;;;24.96;31.03;99468.70;105629;1254;61302;-69
2023/05/30 06:29:21;;;;;;;6.70;3.60;;;;;;;24.41;31.54;99468.83;105617;1254;74061;-68
2023/05/30 06:31:47;;;;;;;7.10;4.90;;;;;;;24.02;32.34;99463.45;105687;1257;68938;-68
2023/05/30 06:34:16;;;;;;;9.40;2.90;;;;;;;24.19;32.21;99466.47;105611;1260;72999;-71
2023/05/30 06:36:43;;;;;;;4.00;2.40;;;;;;;24.28;31.52;99468.55;105750;1254;61284;-67
2023/05/30 06:39:15;;;;;;;6.40;3.00;;;;;;;24.32;31.63;99468.65;105728;1253;61218;-73
2023/05/30 06:41:43;;;;;;;4.80;3.00;;;;;;;24.64;31.06;99470.29;105737;1260;75941;-76
2023/05/30 06:44:10;;;;;;;8.20;4.10;;;;;;;25.12;30.05;99468.99;105957;1257;68305;-69
2023/05/30 06:46:37;;;;;;;6.60;4.10;;;;;;;25.21;29.78;99468.98;105970;1254;73188;-69
2023/05/30 06:49:04;;;;;;;14.00;4.30;;;;;;;25.24;29.50;99468.27;105901;1254;62259;-74
2023/05/30 06:51:31;;;;;;;;;;;;;;;25.34;29.74;99472.14;105822;1254;61170;-68
2023/05/30 06:54:00;;;;;;;4.50;1.80;;;;;;;25.39;28.21;99469.05;105878;1257;74404;-74
2023/05/30 06:56:27;;;;;;;4.50;2.50;;;;;;;25.39;28.39;99464.23;105775;1254;68806;-71
2023/05/30 06:58:55;;;;;;;8.20;2.80;;;;;;;24.74;29.15;99460.13;106005;1254;72556;-70
2023/05/30 07:01:21;;;;;;;15.50;7.80;;;;;;;24.40;29.86;99459.80;105769;1254;62338;-71
2023/05/30 07:03:48;;;;;;;16.60;9.20;;;;;;;24.37;29.55;99458.98;105955;1254;61263;-74
2023/05/30 07:06:15;;;;;;;9.80;5.30;;;;;;;24.68;28.86;99461.98;105987;1253;73696;-71
2023/05/30 07:08:42;;;;;;;7.20;3.60;;;;;;;24.96;28.27;99459.13;106360;1254;68439;-70
2023/05/30 07:11:09;;;;;;;6.60;3.70;;;;;;;25.18;27.18;99461.21;105897;1257;71336;-72
2023/05/30 07:13:36;;;;;;;5.40;4.00;;;;;;;25.16;27.75;99457.09;105889;1256;62283;-70
2023/05/30 07:16:03;;;;;;;2.90;2.30;;;;;;;25.41;27.46;99455.35;105901;1254;62227;-71
2023/05/30 07:18:30;;;;;;;3.60;2.30;;;;;;;25.35;27.14;99452.53;106008;1257;74977;-70
2023/05/30 07:20:57;;;;;;;7.50;4.00;;;;;;;25.20;27.51;99451.08;106018;1254;68642;-70
2023/05/30 07:23:24;;;;;;;3.40;2.90;;;;;;;25.14;27.12;99452.30;105975;1257;73119;-71
2023/05/30 07:25:51;;;;;;;7.40;2.50;;;;;;;24.88;27.20;99453.45;105957;1254;61332;-69
2023/05/30 07:28:22;;;;;;;6.50;3.00;;;;;;;24.75;28.05;99454.98;105640;1254;61330;-69
2023/05/30 07:30:49;;;;;;;9.90;3.60;;;;;;;24.89;27.58;99449.70;105733;1257;75074;-71
2023/05/30 07:33:16;;;;;;;6.40;3.00;;;;;;;25.04;27.52;99443.33;105786;1254;68752;-71
2023/05/30 07:35:43;;;;;;;4.30;2.40;;;;;;;24.97;27.16;99440.64;105769;1256;72783;-72
2023/05/30 07:38:10;;;;;;;9.30;2.70;;;;;;;24.59;27.76;99444.90;105747;1254;62113;-74
2023/05/30 07:40:37;;;;;;;3.20;2.10;;;;;;;24.45;27.67;99449.59;105843;1254;61220;-72
2023/05/30 07:43:04;;;;;;;3.00;2.40;;;;;;;24.54;28.33;99445.85;105681;1257;74330;-71
2023/05/30 07:45:32;;;;;;;;;;;;;;;25.05;28.23;99450.27;105746;1253;68514;-70
2023/05/30 07:47:58;;;;;;;7.80;2.60;;;;;;;25.32;27.76;99449.39;105695;1254;61281;-71
2023/05/30 07:50:25;;;;;;;6.00;2.70;;;;;;;25.26;27.12;99447.37;105745;1260;61291;-71
2023/05/30 07:52:52;;;;;;;5.20;2.80;;;;;;;25.13;27.72;99440.35;105638;1254;61301;-74
2023/05/30 07:55:19;;;;;;;3.00;2.40;;;;;;;25.08;27.14;99445.00;105725;1257;74974;-72
2023/05/30 07:57:46;;;;;;;4.90;2.00;;;;;;;24.96;26.98;99441.64;105772;1253;68397;-69
2023/05/30 08:00:13;;;;;;;4.20;2.20;;;;;;;25.12;27.19;99445.42;105798;1257;72898;-70
2023/05/30 08:02:40;;;;;;;3.80;2.50;;;;;;;25.24;26.77;99439.29;105826;1254;62244;-70
2023/05/30 08:05:07;;;;;;;10.00;2.80;;;;;;;25.09;26.94;99437.65;105839;1253;61334;-73
2023/05/30 08:07:34;;;;;;;8.10;2.70;;;;;;;25.06;27.11;99429.91;105776;1257;74419;-70
2023/05/30 08:10:03;;;;;;;6.70;2.90;;;;;;;24.83;27.59;99431.19;105836;1254;68698;-70
2023/05/30 08:12:30;;;;;;;;;;;;;;;25.09;28.12;99429.41;105675;1255;72530;-71
2023/05/30 08:14:58;;;;;;;3.50;2.90;;;;;;;25.69;27.58;99430.64;105710;1253;61263;-72
2023/05/30 08:17:25;;;;;;;2.70;1.70;;;;;;;25.87;27.20;99430.84;105766;1254;61250;-72
2023/05/30 08:19:53;;;;;;;8.90;2.20;;;;;;;25.71;26.62;99426.59;105689;1257;74528;-71
2023/05/30 08:22:22;;;;;;;2.70;1.80;;;;;;;25.40;26.41;99434.05;105723;1254;68538;-75
2023/05/30 08:24:59;;;;;;;3.70;2.00;;;;;;;25.21;26.72;99424.09;105771;1254;72412;-74
2023/05/30 08:27:26;;;;;;;5.30;1.90;;;;;;;25.35;27.38;99427.80;105686;1259;61351;-71
2023/05/30 08:29:54;;;;;;;4.30;2.30;;;;;;;25.64;26.94;99431.77;105396;1254;62482;-76
2023/05/30 08:32:22;;;;;;;5.40;2.60;;;;;;;25.77;26.94;99435.84;105667;1257;74983;-73
2023/05/30 08:34:48;;;;;;;5.40;2.50;;;;;;;25.85;26.13;99431.55;105767;1254;68472;-72
2023/05/30 08:37:15;;;;;;;6.60;2.90;;;;;;;25.76;26.77;99427.35;105799;1257;72609;-71
2023/05/30 08:39:42;;;;;;;14.80;3.50;;;;;;;25.63;26.74;99432.55;105669;1254;61421;-71
2023/05/30 08:42:12;;;;;;;14.50;3.60;;;;;;;25.96;26.45;99426.69;105791;1253;61234;-73
2023/05/30 08:44:39;;;;;;;6.00;3.20;;;;;;;26.55;26.06;99425.48;105803;1256;74871;-72
2023/05/30 08:47:12;;;;;;;;;;;;;;;26.77;25.76;99424.94;105875;1254;68318;-70
2023/05/30 08:49:42;;;;;;;3.10;2.10;;;;;;;26.62;25.38;99425.61;105442;1254;72505;-72
2023/05/30 08:52:15;;;;;;;5.70;2.40;;;;;;;25.96;25.77;99424.89;105804;1254;61244;-70
2023/05/30 08:54:59;;;;;;;6.50;1.90;;;;;;;25.59;26.69;99425.46;105813;1254;62189;-71
2023/05/30 08:57:37;;;;;;;13.50;2.40;;;;;;;25.42;26.52;99422.31;105785;1257;73377;-70
2023/05/30 09:00:13;;;;;;;2.30;2.10;;;;;;;25.33;26.46;99424.48;105799;1257;67889;-71
2023/05/30 09:02:43;;;;;;;4.30;2.40;;;;;;;25.40;26.69;99422.06;105764;1257;71359;-72
2023/05/30 09:05:10;;;;;;;4.40;2.20;;;;;;;25.81;25.95;99421.10;105799;1253;61298;-73
2023/05/30 09:07:39;;;;;;;4.20;2.00;;;;;;;25.97;25.44;99413.29;105454;1253;61376;-73
2023/05/30 09:10:07;;;;;;;7.30;2.20;;;;;;;25.61;26.26;99413.11;105779;1253;73383;-70
2023/05/30 09:12:35;;;;;;;7.30;2.50;;;;;;;25.44;27.12;99409.64;105809;1253;69144;-72
2023/05/30 09:15:03;;;;;;;4.10;1.70;;;;;;;25.44;27.15;99403.99;105810;1256;71264;-71
2023/05/30 09:17:32;;;;;;;2.90;2.30;;;;;;;25.48;26.98;99406.91;105880;1257;61241;-70
2023/05/30 09:19:59;;;;;;;3.70;2.20;;;;;;;25.60;26.54;99411.58;105774;1254;61208;-68
2023/05/30 09:22:30;;;;;;;5.00;2.10;;;;;;;25.75;26.37;99406.11;105694;1257;75053;-70
2023/05/30 09:25:02;;;;;;;7.50;2.20;;;;;;;26.03;26.54;99405.63;105727;1254;67330;-69
2023/05/30 09:27:30;;;;;;;6.20;2.60;;;;;;;26.13;26.26;99405.84;105655;1259;72542;-72
2023/05/30 09:29:57;;;;;;;7.60;2.20;;;;;;;25.99;26.34;99404.94;105814;1253;62347;-71
2023/05/30 09:32:34;;;;;;;3.20;2.20;;;;;;;26.01;26.59;99400.95;105735;1253;61295;-76
2023/05/30 09:35:04;;;;;;;3.40;2.20;;;;;;;25.83;26.51;99397.48;105678;1262;75191;-73
2023/05/30 09:37:42;;;;;;;3.30;2.10;;;;;;;25.83;26.67;99393.42;105685;1257;67594;-74
2023/05/30 09:40:15;;;;;;;5.60;2.30;;;;;;;26.10;26.44;99387.80;105724;1254;72607;-76
2023/05/30 09:42:48;;;;;;;3.20;1.60;;;;;;;26.27;26.52;99386.41;105786;1256;61379;-74
2023/05/30 09:45:16;;;;;;;4.50;2.10;;;;;;;26.05;25.94;99392.02;105759;1253;61439;-71
2023/05/30 09:47:47;;;;;;;2.10;1.60;;;;;;;26.05;26.43;99387.38;105744;1260;74565;-73
2023/05/30 09:50:21;;;;;;;16.70;3.00;;;;;;;26.39;26.26;99386.86;105630;1257;67311;-70
2023/05/30 09:52:56;;;;;;;6.30;2.10;;;;;;;26.52;26.00;99386.08;105784;1254;72956;-68
2023/05/30 09:55:25;;;;;;;5.00;2.30;;;;;;;26.49;26.53;99384.53;105760;1253;61272;-79
2023/05/30 09:57:53;;;;;;;7.90;2.30;;;;;;;26.44;25.84;99385.61;105828;1254;61333;-72
2023/05/30 10:00:25;;;;;;;7.20;2.70;;;;;;;26.47;26.16;99381.58;105829;1257;74764;-71
2023/05/30 10:03:11;;;;;;;3.90;1.90;;;;;;;26.10;25.93;99381.02;105515;1254;69218;-69
2023/05/30 10:05:38;;;;;;;4.40;1.80;;;;;;;26.07;26.27;99372.73;105770;1257;72728;-73
2023/05/30 10:08:05;;;;;;;6.00;2.00;;;;;;;26.19;26.55;99374.67;105749;1253;61252;-70
2023/05/30 10:10:31;;;;;;;4.50;2.50;;;;;;;26.36;25.50;99368.64;105812;1253;61727;-70
2023/05/30 10:13:00;;;;;;;4.40;2.60;;;;;;;26.44;26.19;99371.30;105800;1257;74243;-71
2023/05/30 10:15:31;;;;;;;7.50;3.30;;;;;;;26.48;25.86;99367.30;106005;1253;68334;-72
2023/05/30 10:18:04;;;;;;;6.40;2.50;;;;;;;26.52;25.64;99364.48;105785;1257;72567;-72
2023/05/30 10:20:32;;;;;;;5.10;2.50;;;;;;;26.56;25.48;99369.67;105757;1253;61237;-71
2023/05/30 10:22:59;;;;;;;3.90;2.30;;;;;;;26.55;25.60;99366.27;105718;1253;61220;-72
2023/05/30 10:25:26;;;;;;;5.50;2.50;;;;;;;26.69;25.55;99363.99;105777;1257;74452;-71
2023/05/30 10:27:54;;;;;;;;;;;;;;;26.76;25.52;99364.52;105837;1253;68624;-71
2023/05/30 10:30:26;;;;;;;14.40;2.80;;;;;;;26.73;25.83;99361.33;105876;1257;73449;-71
2023/05/30 10:33:08;;;;;;;7.50;2.50;;;;;;;26.80;25.91;99355.55;105826;1256;61245;-70
2023/05/30 10:35:35;;;;;;;10.60;2.70;;;;;;;26.73;26.63;99349.04;105746;1254;61344;-72
2023/05/30 10:38:11;;;;;;;10.40;3.60;;;;;;;27.08;25.91;99353.63;105740;1256;74519;-71
2023/05/30 10:40:50;;;;;;;6.90;4.00;;;;;;;26.92;25.45;99345.59;105766;1260;68612;-71
2023/05/30 10:43:42;;;;;;;27.30;6.70;;;;;;;26.84;25.79;99357.33;105799;1254;71771;-72
2023/05/30 10:46:24;;;;;;;6.50;3.60;;;;;;;26.98;25.33;99348.90;105799;1254;61346;-70
2023/05/30 10:49:04;;;;;;;5.70;2.70;;;;;;;26.92;25.37;99350.47;105845;1253;61353;-71
2023/05/30 10:51:30;;;;;;;7.00;2.50;;;;;;;26.88;25.52;99351.59;105695;1254;74297;-72
2023/05/30 10:53:59;;;;;;;6.10;2.20;;;;;;;26.56;25.53;99352.13;105795;1253;68956;-70
2023/05/30 10:56:27;;;;;;;8.30;2.80;;;;;;;26.51;25.34;99349.27;105803;1254;72372;-69
2023/05/30 10:58:54;;;;;;;3.70;2.20;;;;;;;26.62;25.16;99350.27;105700;1253;61319;-70
2023/05/30 11:01:26;;;;;;;3.90;2.40;;;;;;;26.62;24.96;99343.89;105655;1254;61313;-70
2023/05/30 11:04:13;;;;;;;7.60;2.90;;;;;;;26.68;25.31;99341.73;105766;1253;73240;-71
2023/05/30 11:06:42;;;;;;;;;;;;;;;26.69;25.45;99338.77;105786;1254;69083;-70
2023/05/30 11:09:17;;;;;;;5.70;2.20;;;;;;;26.99;25.51;99340.98;105815;1257;72422;-72
2023/05/30 11:12:20;;;;;;;4.00;2.50;;;;;;;27.31;24.24;99346.38;105796;1254;61304;-72
2023/05/30 11:14:54;;;;;;;5.30;2.30;;;;;;;28.02;23.81;99342.74;104993;1263;61850;-74
2023/05/30 11:17:28;;;;;;;4.00;2.30;;;;;;;27.17;23.83;99336.38;105372;1266;74734;-75
2023/05/30 11:20:14;;;;;;;4.50;2.50;;;;;;;27.05;25.05;99326.52;104976;1262;68740;-74
2023/05/30 11:23:11;;;;;;;;;;;;;;;27.25;25.70;99326.05;105288;1267;72476;-73
2023/05/30 11:25:38;;;;;;;12.70;2.60;;;;;;;27.32;24.91;99329.38;104792;1268;61287;-75
2023/05/30 11:28:06;;;;;;;6.40;2.80;;;;;;;27.23;25.39;99327.91;104825;1268;61379;-77
2023/05/30 11:30:40;;;;;;;2.70;2.00;;;;;;;27.40;25.65;99323.28;104712;1273;74633;-75
2023/05/30 11:33:10;;;;;;;4.50;2.50;;;;;;;27.43;25.32;99329.87;104937;1268;68682;-72